Terminal Aerodrome Forecast
Issued by NWS

Home | Current Version | Previous Version | Text Only | Print | Product List | Glossary On
Versions: 1 2 3 4 5 6 7 8 9 10 11 12 13 14 15 16 17 18 19 20 21 22 23 24 25 26 27 28 29 30 31 32 33 34
943
FTUS43 KDLH 080540
TAFBRD
TAF
KBRD 080540Z 0806/0906 29010KT P6SM -SN BKN019 OVC035
     FM080800 31014G20KT 5SM -SN BLSN OVC017
     FM081400 32014G21KT P6SM VCSH OVC025
     FM082100 31010KT P6SM OVC015=

USA.gov is the U.S. government's official web portal to all federal, state and local government web resources and services.